createdAt,value
2019-04-11T04:01:00.686Z,0.00
2019-04-11T04:01:57.527Z,0.00
2019-04-11T04:03:49.001Z,0.00
2019-04-11T04:04:49.342Z,0.00
2019-04-11T04:06:41.510Z,4.00
2019-04-11T04:07:40.860Z,4.00
2019-04-11T04:09:35.157Z,4.00
2019-04-11T04:10:34.046Z,0.00
2019-04-11T04:12:27.285Z,4.00
2019-04-11T04:13:28.275Z,4.00
2019-04-11T04:15:35.795Z,4.00
2019-04-11T04:16:24.984Z,4.00
2019-04-11T04:18:12.774Z,8.00
2019-04-11T04:19:15.239Z,8.00
2019-04-11T04:21:04.241Z,12.00
2019-04-11T04:22:04.943Z,12.00
2019-04-11T04:23:59.265Z,16.00
2019-04-11T04:24:56.329Z,20.00
2019-04-11T04:26:50.190Z,28.00
2019-04-11T04:27:49.156Z,32.00
2019-04-11T04:29:43.947Z,44.00
2019-04-11T04:30:43.298Z,48.00
2019-04-11T04:32:34.028Z,64.00
2019-04-11T04:33:35.652Z,68.00
2019-04-11T04:35:28.394Z,92.00
2019-04-11T04:36:27.269Z,100.00
2019-04-11T04:38:19.070Z,124.00
2019-04-11T04:39:20.170Z,140.00
2019-04-11T04:41:22.480Z,168.00
2019-04-11T04:42:21.905Z,188.00
2019-04-11T04:44:05.063Z,224.00
2019-04-11T04:45:05.062Z,244.00
2019-04-11T04:47:10.254Z,288.00
2019-04-11T04:48:03.413Z,312.00
2019-04-11T04:49:49.504Z,356.00
2019-04-11T04:50:52.256Z,384.00
2019-04-11T04:52:42.837Z,444.00
2019-04-11T04:53:42.969Z,480.00
2019-04-11T04:55:34.906Z,544.00
2019-04-11T04:56:35.044Z,576.00
2019-04-11T04:58:26.917Z,640.00
2019-04-11T04:59:28.180Z,676.00
2019-04-11T05:01:21.178Z,760.00
2019-04-11T05:02:20.553Z,820.00
2019-04-11T05:04:13.948Z,916.00
2019-04-11T05:05:13.509Z,972.00
2019-04-11T05:07:05.302Z,1048.00
2019-04-11T05:08:05.962Z,1080.00
2019-04-11T05:09:58.565Z,1168.00
2019-04-11T05:10:57.904Z,1224.00
2019-04-11T05:12:51.257Z,1320.00
2019-04-11T05:13:51.778Z,1368.00
2019-04-11T05:15:43.467Z,1448.00
2019-04-11T05:16:42.079Z,1504.00
2019-04-11T05:18:34.744Z,1600.00
2019-04-11T05:19:34.626Z,1668.00
2019-04-11T05:21:27.638Z,1760.00
2019-04-11T05:22:27.174Z,1800.00
2019-04-11T05:24:20.830Z,1936.00
2019-04-11T05:25:20.301Z,2032.00
2019-04-11T05:27:12.589Z,2192.00
2019-04-11T05:28:12.261Z,2276.00
2019-04-11T05:30:05.072Z,2364.00
2019-04-11T05:31:05.971Z,2360.00
2019-04-11T05:32:57.805Z,2404.00
2019-04-11T05:33:57.351Z,2464.00
2019-04-11T05:35:50.111Z,2544.00
2019-04-11T05:36:49.938Z,2564.00
2019-04-11T05:38:42.549Z,2648.00
2019-04-11T05:39:42.514Z,2696.00
2019-04-11T05:41:35.116Z,2776.00
2019-04-11T05:42:35.518Z,2800.00
2019-04-11T05:44:28.474Z,2848.00
2019-04-11T05:45:27.532Z,2884.00
2019-04-11T05:47:21.338Z,2940.00
2019-04-11T05:48:23.995Z,2956.00
2019-04-11T05:50:13.775Z,3016.00
2019-04-11T05:51:13.041Z,3052.00
2019-04-11T05:53:05.586Z,3120.00
2019-04-11T05:54:07.617Z,3152.00
2019-04-11T05:55:57.828Z,3216.00
2019-04-11T05:56:59.141Z,3260.00
2019-04-11T05:58:51.467Z,3380.00
2019-04-11T05:59:53.418Z,3436.00
2019-04-11T06:01:42.964Z,3492.00
2019-04-11T06:02:43.693Z,3500.00
2019-04-11T06:04:36.333Z,3532.00
2019-04-11T06:05:36.106Z,3556.00
2019-04-11T06:07:29.212Z,3604.00
2019-04-11T06:08:30.288Z,3640.00
2019-04-11T06:10:20.644Z,3700.00
2019-04-11T06:11:23.667Z,3736.00
2019-04-11T06:13:13.203Z,3808.00
2019-04-11T06:14:13.181Z,3836.00
2019-04-11T06:16:06.346Z,3892.00
2019-04-11T06:17:05.627Z,3924.00
2019-04-11T06:18:58.810Z,3984.00
2019-04-11T06:19:58.165Z,4004.00
2019-04-11T06:21:50.839Z,4048.00
2019-04-11T06:22:50.825Z,4084.00
2019-04-11T06:24:44.453Z,4148.00
2019-04-11T06:25:46.317Z,4172.00
2019-04-11T06:27:36.435Z,4232.00
2019-04-11T06:28:36.135Z,4272.00
2019-04-11T06:30:28.488Z,4324.00
2019-04-11T06:31:28.343Z,4356.00
2019-04-11T06:33:21.009Z,4464.00
2019-04-11T06:34:23.745Z,4512.00
2019-04-11T06:36:13.870Z,4604.00
2019-04-11T06:37:13.920Z,4644.00
2019-04-11T06:39:07.128Z,4748.00
2019-04-11T06:40:05.987Z,4776.00
2019-04-11T06:41:59.070Z,4860.00
2019-04-11T06:42:59.414Z,4892.00
2019-04-11T06:44:52.168Z,4952.00
2019-04-11T06:45:52.366Z,4980.00
2019-04-11T06:47:43.745Z,5060.00
2019-04-11T06:48:43.630Z,5108.00
2019-04-11T06:50:37.516Z,5248.00
2019-04-11T06:51:36.176Z,5340.00
2019-04-11T06:53:30.080Z,5556.00
2019-04-11T06:54:28.774Z,5692.00
2019-04-11T06:56:21.397Z,5984.00
2019-04-11T06:57:21.634Z,6104.00
2019-04-11T06:59:14.396Z,6272.00
2019-04-11T07:00:14.762Z,6400.00
2019-04-11T07:02:12.360Z,7216.00
2019-04-11T07:03:17.390Z,8452.00
2019-04-11T07:05:00.200Z,16224.00
2019-04-11T07:05:59.386Z,23392.00
2019-04-11T07:07:51.691Z,26752.00
2019-04-11T07:08:51.454Z,26912.00
2019-04-11T07:10:44.712Z,27744.00
2019-04-11T07:11:44.815Z,27744.00
2019-04-11T07:13:37.172Z,27328.00
2019-04-11T07:14:37.567Z,27488.00
2019-04-11T07:16:29.666Z,27840.00
2019-04-11T07:17:29.665Z,27744.00
2019-04-11T07:19:21.954Z,27712.00
2019-04-11T07:20:21.797Z,27744.00
2019-04-11T07:22:15.296Z,27808.00
2019-04-11T07:23:14.259Z,28064.00
2019-04-11T07:25:08.118Z,28032.00
2019-04-11T07:26:07.956Z,28000.00
2019-04-11T07:27:59.512Z,28128.00
2019-04-11T07:28:59.415Z,28000.00
2019-04-11T07:30:52.099Z,27232.00
2019-04-11T07:31:53.062Z,27392.00
2019-04-11T07:33:45.084Z,28864.00
2019-04-11T07:34:45.751Z,28864.00
2019-04-11T07:36:38.395Z,29440.00
2019-04-11T07:37:38.513Z,29504.00
2019-04-11T07:39:31.023Z,29888.00
2019-04-11T07:40:31.322Z,30208.00
2019-04-11T07:42:23.870Z,30592.00
2019-04-11T07:43:22.587Z,30688.00
2019-04-11T07:45:15.806Z,29696.00
2019-04-11T07:46:14.982Z,30688.00
2019-04-11T07:48:08.669Z,31360.00
2019-04-11T07:49:08.162Z,31136.00
2019-04-11T07:51:00.136Z,28896.00
2019-04-11T07:52:00.328Z,31168.00
2019-04-11T07:53:52.697Z,31648.00
2019-04-11T07:54:52.654Z,31200.00
2019-04-11T07:56:46.350Z,25568.00
2019-04-11T07:57:45.162Z,25568.00
2019-04-11T07:59:37.839Z,30112.00
2019-04-11T08:00:44.187Z,30240.00
2019-04-11T08:02:31.314Z,32288.00
2019-04-11T08:03:30.333Z,31392.00
2019-04-11T08:05:23.585Z,27744.00
2019-04-11T08:06:22.907Z,29632.00
2019-04-11T08:08:15.585Z,29632.00
2019-04-11T08:09:15.460Z,26976.00
2019-04-11T08:11:09.393Z,28736.00
2019-04-11T08:12:08.751Z,27616.00
2019-04-11T08:14:00.722Z,21984.00
2019-04-11T08:15:01.458Z,17408.00
2019-04-11T08:16:53.339Z,12784.00
2019-04-11T08:17:54.262Z,11420.00
2019-04-11T08:19:46.906Z,9672.00
2019-04-11T08:20:45.736Z,8976.00
2019-04-11T08:22:39.187Z,8072.00
2019-04-11T08:23:38.307Z,7612.00
2019-04-11T08:25:31.478Z,7024.00
2019-04-11T08:26:30.882Z,6904.00
2019-04-11T08:28:24.709Z,6856.00
2019-04-11T08:29:24.316Z,6836.00
2019-04-11T08:31:16.145Z,6760.00
2019-04-11T08:32:16.065Z,6732.00
2019-04-11T08:34:08.711Z,6704.00
2019-04-11T08:35:08.569Z,6676.00
2019-04-11T08:37:01.234Z,6664.00
2019-04-11T08:38:02.700Z,6668.00
2019-04-11T08:39:53.829Z,6616.00
2019-04-11T08:40:53.692Z,6568.00
2019-04-11T08:42:46.583Z,6560.00
2019-04-11T08:43:46.255Z,6568.00
2019-04-11T08:45:38.954Z,6620.00
2019-04-11T08:46:39.261Z,6648.00
2019-04-11T08:48:31.482Z,6664.00
2019-04-11T08:49:32.266Z,6660.00
2019-04-11T08:51:25.287Z,6628.00
2019-04-11T08:52:24.338Z,6656.00
2019-04-11T08:54:17.455Z,6684.00
2019-04-11T08:55:17.270Z,6732.00
2019-04-11T08:57:10.074Z,6788.00
2019-04-11T08:58:09.048Z,6820.00
2019-04-11T09:00:02.325Z,6840.00
2019-04-11T09:01:03.296Z,6820.00
2019-04-11T09:02:55.462Z,6832.00
2019-04-11T09:04:02.149Z,6912.00
2019-04-11T09:05:47.349Z,6896.00
2019-04-11T09:06:47.224Z,6884.00
2019-04-11T09:08:40.619Z,6852.00
2019-04-11T09:09:39.826Z,6780.00
2019-04-11T09:11:33.042Z,6720.00
2019-04-11T09:12:32.339Z,6716.00
2019-04-11T09:14:26.317Z,6724.00
2019-04-11T09:15:24.902Z,6724.00
2019-04-11T09:17:19.408Z,7056.00
2019-04-11T09:18:17.751Z,7424.00
2019-04-11T09:20:10.142Z,7752.00
2019-04-11T09:21:10.016Z,6796.00
2019-04-11T09:23:03.738Z,6456.00
2019-04-11T09:24:02.577Z,7276.00
2019-04-11T09:25:56.491Z,7868.00
2019-04-11T09:26:56.184Z,8704.00
2019-04-11T09:28:47.818Z,9580.00
2019-04-11T09:29:48.416Z,9780.00
2019-04-11T09:31:41.757Z,10012.00
2019-04-11T09:32:40.380Z,9804.00
2019-04-11T09:34:33.611Z,8356.00
2019-04-11T09:35:33.381Z,8332.00
2019-04-11T09:37:25.553Z,10508.00
2019-04-11T09:38:26.434Z,10640.00
2019-04-11T09:40:18.099Z,11888.00
2019-04-11T09:41:18.593Z,11440.00
2019-04-11T09:43:11.485Z,11024.00
2019-04-11T09:44:10.625Z,10360.00
2019-04-11T09:46:03.209Z,9516.00
2019-04-11T09:47:03.421Z,9528.00
2019-04-11T09:48:56.067Z,10224.00
2019-04-11T09:49:55.907Z,9612.00
2019-04-11T09:51:48.339Z,9508.00
2019-04-11T09:52:49.458Z,9144.00
2019-04-11T09:54:41.822Z,8340.00
2019-04-11T09:55:41.649Z,8912.00
2019-04-11T09:57:34.571Z,10572.00
2019-04-11T09:58:33.736Z,11260.00
2019-04-11T10:00:26.634Z,11340.00
2019-04-11T10:01:26.755Z,10308.00
2019-04-11T10:03:19.649Z,8832.00
2019-04-11T10:04:18.849Z,8320.00
2019-04-11T10:06:12.373Z,8208.00
2019-04-11T10:07:11.217Z,8624.00
2019-04-11T10:09:03.858Z,8584.00
2019-04-11T10:10:04.551Z,8796.00
2019-04-11T10:11:56.841Z,9444.00
2019-04-11T10:12:56.302Z,10012.00
2019-04-11T10:14:50.090Z,10596.00
2019-04-11T10:15:48.810Z,10532.00
2019-04-11T10:17:42.555Z,11496.00
2019-04-11T10:18:42.756Z,12756.00
2019-04-11T10:20:34.953Z,14096.00
2019-04-11T10:21:34.115Z,13888.00
2019-04-11T10:23:27.049Z,12492.00
2019-04-11T10:24:26.496Z,11792.00
2019-04-11T10:26:20.257Z,10332.00
2019-04-11T10:27:19.073Z,9388.00
2019-04-11T10:29:11.787Z,7688.00
2019-04-11T10:30:11.642Z,6836.00
2019-04-11T10:32:04.315Z,6268.00
2019-04-11T10:33:04.542Z,6428.00
2019-04-11T10:34:57.624Z,6740.00
2019-04-11T10:35:56.855Z,6948.00
2019-04-11T10:37:49.800Z,7724.00
2019-04-11T10:38:49.425Z,7700.00
2019-04-11T10:40:42.160Z,8936.00
2019-04-11T10:41:42.091Z,9896.00
2019-04-11T10:43:34.666Z,11588.00
2019-04-11T10:44:34.554Z,12992.00
2019-04-11T10:46:27.249Z,14424.00
2019-04-11T10:47:27.132Z,15232.00
2019-04-11T10:49:20.002Z,14068.00
2019-04-11T10:50:19.725Z,13708.00
2019-04-11T10:52:12.374Z,13008.00
2019-04-11T10:53:13.083Z,12236.00
2019-04-11T10:55:05.229Z,11304.00
2019-04-11T10:56:04.811Z,10660.00
2019-04-11T10:57:57.511Z,10212.00
2019-04-11T10:58:57.468Z,9812.00
2019-04-11T11:00:50.061Z,8912.00
2019-04-11T11:01:50.614Z,9060.00
2019-04-11T11:03:43.103Z,9844.00
2019-04-11T11:04:43.062Z,9960.00
2019-04-11T11:06:35.826Z,10280.00
2019-04-11T11:07:35.094Z,10540.00
2019-04-11T11:09:28.315Z,10532.00
2019-04-11T11:10:27.846Z,10004.00
2019-04-11T11:12:21.074Z,9212.00
2019-04-11T11:13:21.552Z,9268.00
2019-04-11T11:15:13.626Z,9056.00
2019-04-11T11:16:13.881Z,8832.00
2019-04-11T11:18:36.827Z,8016.00
2019-04-11T11:19:27.490Z,7896.00
2019-04-11T11:21:01.764Z,8084.00
2019-04-11T11:22:00.440Z,8180.00
2019-04-11T11:23:50.817Z,8308.00
2019-04-11T11:24:50.507Z,8368.00
2019-04-11T11:26:43.304Z,8344.00
2019-04-11T11:27:43.719Z,8340.00
2019-04-11T11:29:37.080Z,8148.00
2019-04-11T11:30:35.634Z,7888.00
2019-04-11T11:32:29.378Z,7808.00
2019-04-11T11:33:28.201Z,7760.00
2019-04-11T11:35:25.130Z,7528.00
2019-04-11T11:36:21.352Z,7444.00
2019-04-11T11:38:13.641Z,7836.00
2019-04-11T11:39:13.328Z,8508.00
2019-04-11T11:41:06.012Z,9648.00
2019-04-11T11:42:06.184Z,10164.00
2019-04-11T11:43:59.282Z,11132.00
2019-04-11T11:44:59.310Z,11532.00
2019-04-11T11:46:52.164Z,12016.00
2019-04-11T11:47:51.223Z,12236.00
2019-04-11T11:49:51.887Z,12676.00
2019-04-11T11:50:44.641Z,12636.00
2019-04-11T11:52:37.578Z,12268.00
2019-04-11T11:53:37.142Z,12428.00
2019-04-11T11:55:29.830Z,12292.00
2019-04-11T11:56:29.762Z,11768.00
2019-04-11T11:58:23.599Z,10508.00
2019-04-11T11:59:23.018Z,10108.00
2019-04-11T12:01:15.703Z,9656.00
2019-04-11T12:02:17.230Z,9484.00
2019-04-11T12:04:08.597Z,9800.00
2019-04-11T12:05:12.420Z,9872.00
2019-04-11T12:07:03.602Z,10260.00
2019-04-11T12:08:00.462Z,10492.00
2019-04-11T12:09:52.977Z,10824.00
2019-04-11T12:10:53.432Z,11176.00
2019-04-11T12:12:46.433Z,12224.00
2019-04-11T12:13:45.616Z,12780.00
2019-04-11T12:15:37.768Z,13168.00
2019-04-11T12:16:37.667Z,12988.00
2019-04-11T12:18:30.361Z,12628.00
2019-04-11T12:19:43.588Z,12532.00
2019-04-11T12:21:26.398Z,12456.00
2019-04-11T12:22:22.794Z,12328.00
2019-04-11T12:24:15.571Z,11556.00
2019-04-11T12:25:16.525Z,11560.00
2019-04-11T12:27:09.780Z,12360.00
2019-04-11T12:28:13.202Z,12456.00
2019-04-11T12:30:03.734Z,12176.00
2019-04-11T12:31:03.647Z,11960.00
2019-04-11T12:32:53.182Z,12540.00
2019-04-11T12:33:54.021Z,12744.00
2019-04-11T12:35:46.488Z,12712.00
2019-04-11T12:36:48.088Z,12732.00
2019-04-11T12:38:38.322Z,13160.00
2019-04-11T12:39:38.218Z,13172.00
2019-04-11T12:41:30.907Z,13036.00
2019-04-11T12:42:31.208Z,12996.00
2019-04-11T12:44:23.455Z,12852.00
2019-04-11T12:45:23.360Z,12716.00
2019-04-11T12:47:16.042Z,11964.00
2019-04-11T12:48:15.934Z,11384.00
2019-04-11T12:50:08.593Z,10052.00
2019-04-11T12:51:08.489Z,9368.00
2019-04-11T12:53:01.186Z,9192.00
2019-04-11T12:54:01.061Z,9400.00
2019-04-11T12:55:53.731Z,10296.00
2019-04-11T12:56:53.626Z,10556.00
2019-04-11T12:58:46.326Z,10628.00
2019-04-11T12:59:46.193Z,10452.00
2019-04-11T13:01:38.889Z,10460.00
2019-04-11T13:02:38.780Z,10580.00
2019-04-11T13:04:31.513Z,11148.00
2019-04-11T13:05:31.364Z,11368.00
2019-04-11T13:07:24.032Z,11584.00
2019-04-11T13:08:23.925Z,11568.00
2019-04-11T13:10:16.615Z,11840.00
2019-04-11T13:11:16.492Z,12044.00
2019-04-11T13:13:09.164Z,11936.00
2019-04-11T13:14:09.054Z,11880.00
2019-04-11T13:16:11.479Z,11912.00
2019-04-11T13:17:01.617Z,11884.00
2019-04-11T13:18:54.297Z,12116.00
2019-04-11T13:20:04.224Z,12204.00
2019-04-11T13:21:46.875Z,12108.00
2019-04-11T13:22:46.754Z,12080.00
2019-04-11T13:24:39.434Z,12068.00
2019-04-11T13:25:39.325Z,12052.00
2019-04-11T13:27:32.025Z,11756.00
2019-04-11T13:28:31.898Z,11728.00
2019-04-11T13:30:24.573Z,11736.00
2019-04-11T13:31:24.468Z,11640.00
2019-04-11T13:33:17.158Z,11348.00
2019-04-11T13:34:17.029Z,11264.00
2019-04-11T13:36:09.707Z,11444.00
2019-04-11T13:37:09.594Z,11444.00
2019-04-11T13:39:04.173Z,11232.00
2019-04-11T13:40:02.165Z,11212.00
2019-04-11T13:41:54.837Z,11304.00
2019-04-11T13:42:54.729Z,11352.00
2019-04-11T13:44:47.457Z,11296.00
2019-04-11T13:45:47.302Z,11084.00
2019-04-11T13:47:39.972Z,10616.00
2019-04-11T13:48:41.980Z,10404.00
2019-04-11T13:50:32.559Z,10068.00
2019-04-11T13:51:32.455Z,9716.00
2019-04-11T13:53:25.101Z,9028.00
2019-04-11T13:54:24.996Z,8756.00
2019-04-11T13:56:17.688Z,8896.00
2019-04-11T13:57:17.567Z,9248.00
2019-04-11T13:59:10.238Z,10124.00
2019-04-11T14:00:10.134Z,10508.00
2019-04-11T14:02:02.830Z,10396.00
2019-04-11T14:03:02.701Z,10392.00
2019-04-11T14:04:55.375Z,10144.00
2019-04-11T14:05:55.268Z,9824.00
2019-04-11T14:07:47.978Z,10252.00
2019-04-11T14:08:47.846Z,10684.00
2019-04-11T14:10:40.523Z,9836.00
2019-04-11T14:11:40.410Z,9728.00
2019-04-11T14:13:34.611Z,9460.00
2019-04-11T14:14:35.775Z,9540.00
2019-04-11T14:16:25.668Z,9196.00
2019-04-11T14:17:25.552Z,8888.00
2019-04-11T14:19:18.256Z,8304.00
2019-04-11T14:20:28.606Z,8324.00
2019-04-11T14:22:13.547Z,8716.00
2019-04-11T14:23:13.675Z,8792.00
2019-04-11T14:25:03.388Z,8732.00
2019-04-11T14:26:03.261Z,8648.00
2019-04-11T14:27:55.933Z,8552.00
2019-04-11T14:28:55.821Z,8752.00
2019-04-11T14:30:51.519Z,9100.00
2019-04-11T14:31:48.397Z,8984.00
2019-04-11T14:33:41.092Z,8592.00
2019-04-11T14:34:40.987Z,8368.00
2019-04-11T14:36:34.011Z,7756.00
2019-04-11T14:37:38.409Z,7404.00
2019-04-11T14:39:26.226Z,6684.00
2019-04-11T14:40:26.123Z,6492.00
2019-04-11T14:42:18.854Z,7056.00
2019-04-11T14:43:18.703Z,7288.00
2019-04-11T14:45:11.360Z,7572.00
2019-04-11T14:46:11.259Z,7532.00
2019-04-11T14:48:03.952Z,7320.00
2019-04-11T14:49:05.677Z,7040.00
2019-04-11T14:50:56.485Z,6632.00
2019-04-11T14:51:58.356Z,6748.00
2019-04-11T14:53:50.691Z,7236.00
2019-04-11T14:54:49.862Z,7520.00
2019-04-11T14:56:41.641Z,7740.00
2019-04-11T14:57:41.525Z,7788.00
2019-04-11T14:59:34.211Z,7640.00
2019-04-11T15:00:34.090Z,7472.00
2019-04-11T15:02:26.763Z,7044.00
2019-04-11T15:03:26.650Z,6752.00
2019-04-11T15:05:19.346Z,5968.00
2019-04-11T15:06:19.216Z,5540.00
2019-04-11T15:08:11.884Z,4780.00
2019-04-11T15:09:11.779Z,4492.00
2019-04-11T15:11:04.468Z,4404.00
2019-04-11T15:12:04.334Z,4548.00
2019-04-11T15:13:57.024Z,5072.00
2019-04-11T15:14:56.923Z,5296.00
2019-04-11T15:16:49.616Z,5656.00
2019-04-11T15:17:49.522Z,5928.00
2019-04-11T15:19:42.173Z,6496.00
2019-04-11T15:20:53.833Z,6664.00
2019-04-11T15:22:35.670Z,6868.00
2019-04-11T15:23:37.543Z,6832.00
2019-04-11T15:25:27.303Z,6804.00
2019-04-11T15:26:27.202Z,6832.00
2019-04-11T15:28:19.888Z,6732.00
2019-04-11T15:29:19.756Z,6556.00
2019-04-11T15:31:12.588Z,6256.00
2019-04-11T15:32:12.326Z,6204.00
2019-04-11T15:34:05.031Z,6108.00
2019-04-11T15:35:04.898Z,5864.00
2019-04-11T15:36:58.474Z,5748.00
2019-04-11T15:37:57.466Z,5644.00
2019-04-11T15:39:50.172Z,5480.00
2019-04-11T15:40:50.044Z,5512.00
2019-04-11T15:42:42.721Z,5604.00
2019-04-11T15:43:43.576Z,5560.00
2019-04-11T15:45:35.299Z,5440.00
2019-04-11T15:46:35.169Z,5412.00
2019-04-11T15:48:28.841Z,5260.00
2019-04-11T15:49:31.273Z,5128.00
2019-04-11T15:51:21.438Z,4724.00
2019-04-11T15:52:21.302Z,4408.00
2019-04-11T15:54:13.969Z,4236.00
2019-04-11T15:55:13.868Z,4288.00
2019-04-11T15:57:06.551Z,4456.00
2019-04-11T15:58:06.426Z,4436.00
2019-04-11T15:59:59.100Z,4332.00
2019-04-11T16:00:58.983Z,4244.00
2019-04-11T16:02:51.671Z,4152.00
2019-04-11T16:03:51.540Z,4144.00
2019-04-11T16:05:44.214Z,4224.00
2019-04-11T16:06:44.104Z,4288.00
2019-04-11T16:08:39.487Z,4268.00
2019-04-11T16:09:36.694Z,4300.00
2019-04-11T16:11:29.342Z,4160.00
2019-04-11T16:12:29.227Z,4080.00
2019-04-11T16:14:21.928Z,3964.00
2019-04-11T16:15:23.236Z,3920.00
2019-04-11T16:17:14.738Z,3808.00
2019-04-11T16:18:16.116Z,3712.00
2019-04-11T16:20:07.043Z,3260.00
2019-04-11T16:21:17.967Z,2880.00
2019-04-11T16:22:59.584Z,2320.00
2019-04-11T16:23:59.478Z,2172.00
2019-04-11T16:25:52.162Z,2072.00
2019-04-11T16:26:52.034Z,2072.00
2019-04-11T16:28:44.704Z,2032.00
2019-04-11T16:29:44.598Z,2012.00
2019-04-11T16:31:37.814Z,2068.00
2019-04-11T16:32:37.166Z,2108.00
2019-04-11T16:34:29.825Z,2204.00
2019-04-11T16:35:29.747Z,2288.00
2019-04-11T16:37:22.405Z,2304.00
2019-04-11T16:38:22.267Z,2300.00
2019-04-11T16:40:14.937Z,2324.00
2019-04-11T16:41:14.821Z,2332.00
2019-04-11T16:43:07.518Z,2256.00
2019-04-11T16:44:07.383Z,2192.00
2019-04-11T16:46:00.049Z,2192.00
2019-04-11T16:46:59.936Z,2184.00
2019-04-11T16:48:55.661Z,2156.00
2019-04-11T16:49:52.512Z,2036.00
2019-04-11T16:51:45.167Z,1896.00
2019-04-11T16:52:45.056Z,1864.00
2019-04-11T16:54:39.737Z,1784.00
2019-04-11T16:55:42.126Z,1716.00
2019-04-11T16:57:30.283Z,1512.00
2019-04-11T16:58:30.171Z,1460.00
2019-04-11T17:00:22.881Z,1400.00
2019-04-11T17:01:23.173Z,1400.00
2019-04-11T17:03:17.309Z,1368.00
2019-04-11T17:04:15.786Z,1356.00
2019-04-11T17:06:08.490Z,1360.00
2019-04-11T17:07:08.349Z,1348.00
2019-04-11T17:09:01.028Z,1380.00
2019-04-11T17:10:00.912Z,1396.00
2019-04-11T17:11:56.556Z,1396.00
2019-04-11T17:12:53.882Z,1372.00
2019-04-11T17:14:46.150Z,1340.00
2019-04-11T17:15:46.037Z,1328.00
2019-04-11T17:17:38.717Z,1304.00
2019-04-11T17:18:38.587Z,1284.00
2019-04-11T17:20:31.261Z,1228.00
2019-04-11T17:21:42.484Z,1184.00
2019-04-11T17:23:23.831Z,1132.00
2019-04-11T17:24:23.703Z,1100.00
2019-04-11T17:26:16.400Z,1072.00
2019-04-11T17:27:16.263Z,1072.00
2019-04-11T17:29:08.937Z,1044.00
2019-04-11T17:30:08.826Z,1016.00
2019-04-11T17:32:01.521Z,984.00
2019-04-11T17:33:01.384Z,952.00
2019-04-11T17:34:54.050Z,872.00
2019-04-11T17:35:53.940Z,860.00
2019-04-11T17:37:46.633Z,852.00
2019-04-11T17:38:46.498Z,836.00
2019-04-11T17:40:39.546Z,800.00
2019-04-11T17:41:41.796Z,780.00
2019-04-11T17:43:31.764Z,724.00
2019-04-11T17:44:31.607Z,696.00
2019-04-11T17:46:26.760Z,652.00
2019-04-11T17:47:26.742Z,624.00
2019-04-11T17:49:16.861Z,596.00
2019-04-11T17:50:16.719Z,564.00
2019-04-11T17:52:09.391Z,500.00
2019-04-11T17:53:09.274Z,468.00
2019-04-11T17:55:01.980Z,416.00
2019-04-11T17:56:01.837Z,388.00
2019-04-11T17:57:54.878Z,332.00
2019-04-11T17:58:57.704Z,312.00
2019-04-11T18:00:47.092Z,288.00
2019-04-11T18:01:46.966Z,268.00
2019-04-11T18:03:41.810Z,236.00
2019-04-11T18:04:44.026Z,220.00
2019-04-11T18:06:32.244Z,208.00
2019-04-11T18:07:32.115Z,188.00
2019-04-11T18:09:26.291Z,160.00
2019-04-11T18:10:25.939Z,152.00
2019-04-11T18:12:17.356Z,132.00
2019-04-11T18:13:17.235Z,128.00
2019-04-11T18:15:09.886Z,120.00
2019-04-11T18:16:09.770Z,112.00
2019-04-11T18:18:03.103Z,96.00
2019-04-11T18:19:05.818Z,92.00
2019-04-11T18:20:55.003Z,76.00
2019-04-11T18:21:54.888Z,68.00
2019-04-11T18:23:49.829Z,60.00
2019-04-11T18:24:49.858Z,56.00
2019-04-11T18:26:40.114Z,48.00
2019-04-11T18:27:40.002Z,44.00
2019-04-11T18:29:32.681Z,40.00
2019-04-11T18:30:32.553Z,36.00
2019-04-11T18:32:25.219Z,36.00
2019-04-11T18:33:25.107Z,28.00
2019-04-11T18:35:17.791Z,28.00
2019-04-11T18:36:17.672Z,24.00
2019-04-11T18:38:10.334Z,24.00
2019-04-11T18:39:10.223Z,20.00
2019-04-11T18:41:02.907Z,20.00
2019-04-11T18:42:02.775Z,16.00
2019-04-11T18:43:55.453Z,20.00
2019-04-11T18:44:57.619Z,16.00
2019-04-11T18:46:48.050Z,16.00
2019-04-11T18:47:47.914Z,16.00
2019-04-11T18:49:40.581Z,16.00
2019-04-11T18:50:40.469Z,16.00
2019-04-11T18:52:33.315Z,16.00
2019-04-11T18:53:33.021Z,16.00
2019-04-11T18:55:25.680Z,16.00
2019-04-11T18:56:25.575Z,16.00
2019-04-11T18:58:18.266Z,16.00
2019-04-11T18:59:18.128Z,16.00
2019-04-11T19:01:10.801Z,16.00
2019-04-11T19:02:10.682Z,12.00
2019-04-11T19:04:03.372Z,12.00
2019-04-11T19:05:03.233Z,12.00
2019-04-11T19:06:55.897Z,12.00
2019-04-11T19:07:55.788Z,12.00
2019-04-11T19:09:48.476Z,12.00
2019-04-11T19:10:48.350Z,12.00
2019-04-11T19:12:41.010Z,12.00
2019-04-11T19:13:40.892Z,12.00
2019-04-11T19:15:33.581Z,12.00
2019-04-11T19:16:33.449Z,12.00
2019-04-11T19:18:26.113Z,12.00
2019-04-11T19:19:27.458Z,12.00
2019-04-11T19:21:21.016Z,16.00
2019-04-11T19:22:20.847Z,12.00
2019-04-11T19:24:12.927Z,12.00
2019-04-11T19:25:11.977Z,12.00
2019-04-11T19:27:03.781Z,12.00
2019-04-11T19:28:03.653Z,12.00
2019-04-11T19:29:56.685Z,12.00
2019-04-11T19:30:56.890Z,12.00
2019-04-11T19:32:48.905Z,12.00
2019-04-11T19:33:48.802Z,16.00
2019-04-11T19:35:42.209Z,16.00
2019-04-11T19:36:42.399Z,16.00
2019-04-11T19:38:34.017Z,12.00
2019-04-11T19:39:33.896Z,12.00
2019-04-11T19:41:26.587Z,12.00
2019-04-11T19:42:26.447Z,12.00
2019-04-11T19:44:19.384Z,12.00
2019-04-11T19:45:19.550Z,12.00
2019-04-11T19:47:11.783Z,12.00
2019-04-11T19:48:11.554Z,12.00
2019-04-11T19:50:04.220Z,12.00
2019-04-11T19:51:04.120Z,12.00
2019-04-11T19:52:56.791Z,12.00
2019-04-11T19:53:56.662Z,12.00
2019-04-11T19:55:49.324Z,12.00
2019-04-11T19:56:49.222Z,12.00
2019-04-11T19:58:41.893Z,12.00
2019-04-11T19:59:41.766Z,12.00
2019-04-11T20:01:34.458Z,12.00
2019-04-11T20:02:34.367Z,12.00
2019-04-11T20:04:27.035Z,12.00
2019-04-11T20:05:26.906Z,12.00
2019-04-11T20:07:19.567Z,12.00
2019-04-11T20:08:19.563Z,12.00
2019-04-11T20:10:12.145Z,12.00
2019-04-11T20:11:12.016Z,12.00
2019-04-11T20:13:04.678Z,12.00
2019-04-11T20:14:04.563Z,12.00
2019-04-11T20:15:57.256Z,0.00
2019-04-11T20:16:57.115Z,0.00
2019-04-11T20:18:51.226Z,0.00
2019-04-11T20:20:00.634Z,0.00
2019-04-11T20:21:42.361Z,0.00
2019-04-11T20:22:42.219Z,0.00
2019-04-11T20:24:34.899Z,0.00
2019-04-11T20:25:34.779Z,0.00
2019-04-11T20:27:27.463Z,0.00
2019-04-11T20:28:27.337Z,0.00
2019-04-11T20:30:19.998Z,0.00
2019-04-11T20:31:19.898Z,0.00
2019-04-11T20:33:12.583Z,0.00
2019-04-11T20:34:12.457Z,0.00
2019-04-11T20:36:05.121Z,0.00
2019-04-11T20:37:05.007Z,0.00
2019-04-11T20:38:57.714Z,0.00
2019-04-11T20:39:57.558Z,0.00
2019-04-11T20:41:53.159Z,0.00
2019-04-11T20:42:54.142Z,0.00
2019-04-11T20:44:43.326Z,0.00
2019-04-11T20:45:43.176Z,0.00
2019-04-11T20:47:35.853Z,0.00
2019-04-11T20:48:35.732Z,0.00
2019-04-11T20:50:28.411Z,0.00
2019-04-11T20:51:28.281Z,0.00
2019-04-11T20:53:20.950Z,0.00
2019-04-11T20:54:20.830Z,0.00
2019-04-11T20:56:23.610Z,0.00
2019-04-11T20:57:24.972Z,0.00
2019-04-11T20:59:10.073Z,0.00
2019-04-11T21:00:05.946Z,0.00
2019-04-11T21:01:58.646Z,0.00
2019-04-11T21:02:59.052Z,0.00
2019-04-11T21:04:51.189Z,0.00
2019-04-11T21:05:51.059Z,0.00
2019-04-11T21:07:43.747Z,0.00
2019-04-11T21:08:43.612Z,0.00
2019-04-11T21:10:36.275Z,0.00
2019-04-11T21:11:37.208Z,0.00
2019-04-11T21:13:28.850Z,0.00
2019-04-11T21:14:28.710Z,0.00
2019-04-11T21:16:21.387Z,0.00
2019-04-11T21:17:21.266Z,0.00
2019-04-11T21:19:13.945Z,0.00
2019-04-11T21:20:13.815Z,0.00
2019-04-11T21:22:06.484Z,0.00
2019-04-11T21:23:06.373Z,0.00
2019-04-11T21:24:59.502Z,0.00
2019-04-11T21:25:59.635Z,0.00
2019-04-11T21:27:51.589Z,0.00
2019-04-11T21:28:51.479Z,0.00
2019-04-11T21:30:44.163Z,0.00
2019-04-11T21:31:44.035Z,0.00
2019-04-11T21:33:36.710Z,0.00
2019-04-11T21:34:36.596Z,0.00
2019-04-11T21:36:31.517Z,0.00